createdAt,value
2022-09-12T00:00:43.124Z,5.70
2022-09-12T00:02:45.696Z,6.20
2022-09-12T00:04:49.779Z,5.57
2022-09-12T00:06:52.350Z,5.95
2022-09-12T00:08:56.847Z,6.00
2022-09-12T00:10:59.448Z,6.07
2022-09-12T00:13:01.989Z,5.25
2022-09-12T00:15:05.531Z,6.15
2022-09-12T00:17:08.088Z,5.97
2022-09-12T00:19:11.133Z,5.93
2022-09-12T00:21:15.668Z,6.65
2022-09-12T00:23:18.197Z,5.95
2022-09-12T00:25:20.781Z,6.43
2022-09-12T00:27:23.377Z,6.25
2022-09-12T00:29:26.258Z,5.50
2022-09-12T00:31:29.421Z,6.05
2022-09-12T00:33:32.213Z,6.22
2022-09-12T00:35:34.785Z,6.47
2022-09-12T00:37:38.690Z,6.75
2022-09-12T00:39:41.510Z,6.70
2022-09-12T00:41:45.162Z,6.32
2022-09-12T00:43:49.185Z,6.38
2022-09-12T00:45:51.812Z,6.75
2022-09-12T00:47:55.089Z,5.72
2022-09-12T00:50:04.739Z,6.25
2022-09-12T00:52:11.041Z,7.47
2022-09-12T00:54:18.202Z,7.30
2022-09-12T00:56:22.862Z,6.97
2022-09-12T00:58:28.954Z,6.70
2022-09-12T01:00:31.704Z,7.30
2022-09-12T01:02:34.495Z,7.00
2022-09-12T01:04:39.667Z,7.03
2022-09-12T01:06:44.399Z,6.38
2022-09-12T01:08:49.113Z,6.90
2022-09-12T01:10:53.525Z,6.10
2022-09-12T01:12:56.320Z,6.82
2022-09-12T01:14:59.753Z,6.22
2022-09-12T01:17:02.532Z,6.88
2022-09-12T01:19:21.391Z,6.45
2022-09-12T01:21:34.747Z,8.25
2022-09-12T01:24:22.717Z,7.43
2022-09-12T01:27:01.131Z,7.55
2022-09-12T01:29:22.917Z,7.20
2022-09-12T01:31:35.079Z,7.90
2022-09-12T01:33:48.751Z,7.90
2022-09-12T01:36:03.691Z,6.93
2022-09-12T01:38:12.759Z,6.53
2022-09-12T01:40:23.958Z,6.72
2022-09-12T01:42:34.470Z,7.07
2022-09-12T01:44:47.735Z,7.55
2022-09-12T01:46:59.073Z,7.53
2022-09-12T01:49:08.181Z,7.18
2022-09-12T01:51:17.967Z,7.18
2022-09-12T01:53:27.154Z,7.18
2022-09-12T01:55:33.530Z,7.38
2022-09-12T01:57:42.086Z,7.45
2022-09-12T01:59:48.689Z,8.20
2022-09-12T02:01:59.815Z,7.68
2022-09-12T02:04:09.726Z,6.55
2022-09-12T02:06:19.887Z,7.28
2022-09-12T02:08:27.590Z,8.20
2022-09-12T02:10:33.125Z,7.57
2022-09-12T02:12:43.519Z,7.28
2022-09-12T02:14:50.077Z,7.75
2022-09-12T02:16:57.933Z,7.47
2022-09-12T02:19:06.441Z,7.30
2022-09-12T02:21:09.711Z,7.07
2022-09-12T02:23:15.944Z,6.75
2022-09-12T02:25:20.826Z,7.57
2022-09-12T02:27:27.060Z,6.93
2022-09-12T02:29:30.168Z,7.03
2022-09-12T02:31:39.470Z,6.85
2022-09-12T02:33:50.555Z,6.13
2022-09-12T02:35:59.148Z,6.85
2022-09-12T02:38:05.560Z,7.97
2022-09-12T02:40:09.775Z,6.38
2022-09-12T02:42:12.604Z,6.30
2022-09-12T02:44:15.298Z,7.07
2022-09-12T02:46:21.224Z,6.82
2022-09-12T02:48:27.677Z,6.78
2022-09-12T02:50:32.618Z,8.68
2022-09-12T02:52:36.451Z,8.50
2022-09-12T02:54:39.150Z,8.20
2022-09-12T02:56:43.343Z,8.32
2022-09-12T02:58:46.486Z,7.65
2022-09-12T03:00:57.556Z,8.77
2022-09-12T03:03:21.738Z,8.27
2022-09-12T03:05:30.348Z,8.57
2022-09-12T03:07:54.208Z,7.68
2022-09-12T03:10:04.775Z,8.48
2022-09-12T03:12:24.335Z,8.45
2022-09-12T03:14:44.653Z,8.68
2022-09-12T03:16:57.987Z,8.63
2022-09-12T03:19:07.333Z,7.70
2022-09-12T03:21:17.586Z,7.10
2022-09-12T03:23:30.163Z,7.88
2022-09-12T03:25:37.249Z,7.78
2022-09-12T03:27:44.257Z,7.93
2022-09-12T03:29:48.944Z,7.70
2022-09-12T03:31:55.294Z,7.95
2022-09-12T03:33:57.870Z,7.32
2022-09-12T03:36:03.380Z,7.80
2022-09-12T03:38:07.952Z,8.00
2022-09-12T03:40:13.065Z,7.53
2022-09-12T03:42:15.649Z,6.68
2022-09-12T03:44:18.559Z,6.47
2022-09-12T03:46:21.201Z,6.82
2022-09-12T03:48:23.748Z,6.45
2022-09-12T03:50:26.318Z,7.00
2022-09-12T03:52:29.176Z,6.68
2022-09-12T03:54:31.741Z,6.40
2022-09-12T03:56:36.016Z,6.47
2022-09-12T03:58:39.406Z,6.78
2022-09-12T04:00:43.038Z,7.22
2022-09-12T04:02:45.590Z,7.10
2022-09-12T04:04:48.861Z,6.63
2022-09-12T04:06:51.418Z,6.63
2022-09-12T04:08:55.556Z,6.97
2022-09-12T04:11:04.172Z,8.10
2022-09-12T04:13:08.136Z,8.18
2022-09-12T04:15:11.496Z,8.18
2022-09-12T04:17:14.139Z,9.68
2022-09-12T04:19:16.761Z,8.77
2022-09-12T04:21:21.825Z,8.18
2022-09-12T04:23:24.421Z,9.30
2022-09-12T04:25:28.247Z,8.60
2022-09-12T04:27:30.927Z,8.68
2022-09-12T04:29:35.646Z,8.10
2022-09-12T04:31:38.560Z,8.10
2022-09-12T04:33:41.152Z,7.75
2022-09-12T04:35:45.287Z,8.15
2022-09-12T04:37:47.904Z,8.80
2022-09-12T04:39:50.692Z,8.73
2022-09-12T04:41:53.288Z,8.65
2022-09-12T04:43:59.149Z,8.63
2022-09-12T04:46:07.438Z,8.68
2022-09-12T04:48:09.989Z,8.30
2022-09-12T04:50:12.516Z,7.95
2022-09-12T04:52:15.067Z,6.85
2022-09-12T04:54:19.892Z,7.68
2022-09-12T04:56:23.762Z,6.97
2022-09-12T04:58:26.331Z,7.28
2022-09-12T05:00:29.048Z,7.30
2022-09-12T05:02:34.351Z,6.40
2022-09-12T05:04:36.992Z,6.90
2022-09-12T05:06:40.320Z,6.40
2022-09-12T05:08:43.000Z,6.70
2022-09-12T05:10:45.654Z,7.00
2022-09-12T05:12:48.330Z,7.22
2022-09-12T05:14:50.892Z,8.00
2022-09-12T05:16:53.792Z,7.60
2022-09-12T05:18:58.374Z,8.68
2022-09-12T05:21:02.117Z,9.13
2022-09-12T05:23:04.632Z,8.82
2022-09-12T05:25:08.588Z,8.45
2022-09-12T05:27:11.131Z,9.30
2022-09-12T05:29:14.085Z,9.80
2022-09-12T05:31:18.991Z,9.88
2022-09-12T05:33:24.996Z,8.90
2022-09-12T05:35:29.258Z,9.38
2022-09-12T05:37:31.835Z,9.35
2022-09-12T05:39:34.391Z,9.32
2022-09-12T05:41:37.185Z,8.32
2022-09-12T05:43:41.425Z,9.07
2022-09-12T05:45:44.059Z,8.50
2022-09-12T05:47:48.048Z,9.02
2022-09-12T05:49:52.926Z,9.30
2022-09-12T05:51:56.807Z,9.43
2022-09-12T05:54:01.261Z,9.10
2022-09-12T05:56:08.208Z,9.48
2022-09-12T05:58:10.757Z,9.13
2022-09-12T06:00:17.301Z,8.93
2022-09-12T06:02:19.939Z,9.15
2022-09-12T06:04:23.702Z,7.35
2022-09-12T06:06:27.722Z,7.47
2022-09-12T06:08:32.069Z,7.70
2022-09-12T06:10:35.339Z,7.53
2022-09-12T06:12:37.888Z,8.10
2022-09-12T06:14:40.399Z,8.00
2022-09-12T06:16:43.505Z,7.82
2022-09-12T06:18:49.188Z,7.45
2022-09-12T06:20:51.720Z,7.45
2022-09-12T06:22:54.327Z,8.00
2022-09-12T06:24:58.255Z,8.60
2022-09-12T06:27:02.290Z,7.82
2022-09-12T06:29:04.982Z,8.30
2022-09-12T06:31:10.654Z,8.57
2022-09-12T06:33:13.315Z,9.43
2022-09-12T06:35:16.137Z,8.90
2022-09-12T06:37:18.719Z,9.18
2022-09-12T06:39:23.256Z,10.05
2022-09-12T06:41:27.883Z,11.93
2022-09-12T06:43:30.587Z,12.52
2022-09-12T06:45:33.209Z,13.05
2022-09-12T06:47:35.757Z,13.38
2022-09-12T06:49:38.510Z,12.23
2022-09-12T06:51:43.294Z,11.65
2022-09-12T06:53:46.781Z,12.23
2022-09-12T06:55:56.199Z,11.40
2022-09-12T06:58:00.169Z,11.02
2022-09-12T07:00:04.378Z,11.48
2022-09-12T07:02:07.327Z,11.82
2022-09-12T07:04:10.361Z,12.18
2022-09-12T07:06:14.514Z,10.13
2022-09-12T07:08:16.992Z,11.00
2022-09-12T07:10:22.312Z,11.13
2022-09-12T07:12:25.063Z,9.80
2022-09-12T07:14:28.921Z,11.60
2022-09-12T07:16:32.248Z,10.38
2022-09-12T07:18:35.383Z,9.57
2022-09-12T07:20:39.237Z,11.25
2022-09-12T07:22:41.965Z,10.02
2022-09-12T07:24:45.791Z,9.35
2022-09-12T07:26:48.617Z,10.45
2022-09-12T07:28:52.743Z,9.65
2022-09-12T07:30:56.777Z,9.82
2022-09-12T07:32:59.371Z,9.40
2022-09-12T07:35:01.932Z,10.02
2022-09-12T07:37:07.473Z,10.30
2022-09-12T07:39:10.492Z,10.15
2022-09-12T07:41:13.733Z,9.98
2022-09-12T07:43:16.247Z,10.23
2022-09-12T07:45:18.762Z,10.05
2022-09-12T07:47:22.654Z,11.05
2022-09-12T07:49:25.601Z,10.52
2022-09-12T07:51:29.929Z,10.23
2022-09-12T07:53:35.259Z,10.40
2022-09-12T07:55:37.914Z,10.20
2022-09-12T07:57:40.504Z,12.00
2022-09-12T07:59:52.531Z,10.95
2022-09-12T08:01:58.611Z,11.68
2022-09-12T08:04:04.693Z,10.07
2022-09-12T08:06:09.379Z,11.45
2022-09-12T08:08:12.052Z,11.98
2022-09-12T08:10:16.219Z,11.27
2022-09-12T08:12:20.258Z,11.55
2022-09-12T08:14:22.833Z,10.85
2022-09-12T08:16:31.063Z,11.07
2022-09-12T08:18:34.306Z,12.27
2022-09-12T08:20:38.205Z,10.95
2022-09-12T08:22:40.829Z,11.45
2022-09-12T08:24:43.774Z,11.20
2022-09-12T08:26:46.608Z,11.15
2022-09-12T08:28:49.274Z,10.80
2022-09-12T08:30:52.105Z,10.68
2022-09-12T08:32:54.725Z,10.88
2022-09-12T08:34:57.257Z,11.07
2022-09-12T08:37:01.151Z,10.52
2022-09-12T08:39:06.751Z,11.35
2022-09-12T08:41:16.203Z,10.82
2022-09-12T08:43:34.249Z,9.73
2022-09-12T08:45:44.072Z,9.68
2022-09-12T08:47:48.059Z,9.65
2022-09-12T08:49:57.359Z,9.73
2022-09-12T08:52:11.527Z,9.63
2022-09-12T08:54:21.204Z,10.98
2022-09-12T08:56:26.477Z,10.02
2022-09-12T08:58:35.231Z,9.95
2022-09-12T09:00:45.857Z,10.45
2022-09-12T09:03:11.771Z,9.10
2022-09-12T09:05:21.105Z,9.32
2022-09-12T09:07:46.677Z,7.35
2022-09-12T09:10:07.955Z,8.35
2022-09-12T09:12:18.926Z,7.57
2022-09-12T09:14:47.859Z,7.40
2022-09-12T09:16:53.704Z,7.63
2022-09-12T09:18:59.493Z,7.72
2022-09-12T09:21:06.816Z,6.95
2022-09-12T09:23:16.147Z,7.13
2022-09-12T09:25:23.728Z,7.28
2022-09-12T09:27:41.399Z,7.55
2022-09-12T09:29:49.023Z,7.20
2022-09-12T09:31:55.882Z,7.28
2022-09-12T09:33:58.630Z,6.80
2022-09-12T09:36:12.027Z,7.18
2022-09-12T09:38:24.827Z,6.80
2022-09-12T09:40:35.966Z,6.72
2022-09-12T09:42:44.837Z,6.82
2022-09-12T09:44:49.223Z,6.78
2022-09-12T09:46:56.419Z,6.47
2022-09-12T09:49:03.060Z,6.15
2022-09-12T09:51:09.172Z,7.70
2022-09-12T09:53:23.512Z,6.30
2022-09-12T09:55:35.210Z,5.43
2022-09-12T09:57:44.612Z,4.68
2022-09-12T09:59:47.169Z,5.53
2022-09-12T10:01:53.731Z,5.50
2022-09-12T10:03:57.668Z,5.57
2022-09-12T10:06:02.089Z,4.70
2022-09-12T10:08:08.106Z,5.05
2022-09-12T10:10:17.163Z,4.68
2022-09-12T10:12:29.192Z,4.50
2022-09-12T10:14:37.874Z,5.70
2022-09-12T10:16:53.274Z,4.65
2022-09-12T10:18:57.152Z,4.82
2022-09-12T10:21:01.637Z,4.15
2022-09-12T10:23:30.188Z,4.30
2022-09-12T10:25:32.789Z,5.10
2022-09-12T10:27:37.019Z,4.55
2022-09-12T10:29:45.754Z,5.50
2022-09-12T10:31:52.124Z,5.13
2022-09-12T10:33:55.610Z,6.10
2022-09-12T10:36:04.610Z,6.10
2022-09-12T10:38:08.414Z,5.75
2022-09-12T10:40:25.197Z,5.50
2022-09-12T10:42:48.224Z,4.85
2022-09-12T10:44:55.553Z,4.82
2022-09-12T10:46:59.890Z,5.20
2022-09-12T10:49:22.328Z,4.50
2022-09-12T10:51:29.201Z,4.68
2022-09-12T10:53:41.093Z,4.68
2022-09-12T10:55:55.454Z,4.60
2022-09-12T10:58:15.548Z,4.43
2022-09-12T11:00:27.394Z,4.40
2022-09-12T11:04:47.560Z,4.70
2022-09-12T11:07:03.569Z,3.92
2022-09-12T11:09:15.107Z,4.00
2022-09-12T11:11:34.754Z,4.60
2022-09-12T11:13:54.696Z,4.10
2022-09-12T11:16:13.592Z,3.90
2022-09-12T11:18:33.993Z,3.72
2022-09-12T11:21:02.073Z,3.72
2022-09-12T11:23:33.280Z,4.10
2022-09-12T11:25:46.232Z,4.00
2022-09-12T11:28:01.632Z,4.05
2022-09-12T11:30:10.812Z,3.60
2022-09-12T11:32:38.271Z,3.70
2022-09-12T11:34:53.602Z,3.30
2022-09-12T11:37:11.001Z,3.40
2022-09-12T11:39:16.574Z,3.60
2022-09-12T11:41:24.524Z,3.47
2022-09-12T11:43:33.991Z,3.10
2022-09-12T11:45:43.158Z,3.33
2022-09-12T11:47:50.877Z,2.60
2022-09-12T11:49:55.702Z,2.70
2022-09-12T11:52:04.497Z,2.75
2022-09-12T11:54:16.504Z,2.58
2022-09-12T11:56:19.740Z,2.55
2022-09-12T11:58:26.907Z,2.90
2022-09-12T12:00:34.965Z,2.88
2022-09-12T12:02:45.467Z,2.88
2022-09-12T12:05:02.861Z,2.92
2022-09-12T12:07:08.729Z,3.03
2022-09-12T12:09:13.769Z,2.47
2022-09-12T12:11:25.598Z,2.55
2022-09-12T12:15:39.113Z,2.33
2022-09-12T12:17:43.512Z,2.10
2022-09-12T12:19:47.009Z,2.25
2022-09-12T12:21:51.783Z,1.88
2022-09-12T12:24:05.265Z,2.50
2022-09-12T12:26:58.994Z,2.60
2022-09-12T12:29:02.070Z,2.30
2022-09-12T12:31:05.481Z,2.25
2022-09-12T12:33:51.828Z,2.03
2022-09-12T12:36:05.036Z,1.58
2022-09-12T12:38:29.089Z,1.33
2022-09-12T12:40:32.782Z,1.92
2022-09-12T12:43:08.847Z,1.50
2022-09-12T12:45:44.862Z,1.10
2022-09-12T12:47:50.392Z,1.20
2022-09-12T12:49:59.965Z,1.33
2022-09-12T12:52:02.965Z,1.70
2022-09-12T12:54:26.717Z,1.40
2022-09-12T12:56:36.051Z,1.38
2022-09-12T12:58:41.146Z,1.30
2022-09-12T13:00:47.101Z,1.15
2022-09-12T13:02:53.232Z,1.10
2022-09-12T13:04:59.607Z,0.90
2022-09-12T13:07:08.373Z,1.00
2022-09-12T13:09:22.469Z,1.20
2022-09-12T13:11:31.828Z,0.88
2022-09-12T13:13:39.629Z,1.00
2022-09-12T13:15:52.180Z,1.13
2022-09-12T13:17:59.984Z,1.10
2022-09-12T13:20:27.385Z,0.80
2022-09-12T13:22:41.137Z,1.20
2022-09-12T13:24:44.217Z,1.08
2022-09-12T13:26:49.408Z,1.05
2022-09-12T13:29:09.425Z,0.90
2022-09-12T13:31:21.401Z,0.88
2022-09-12T13:33:32.679Z,0.93
2022-09-12T13:35:50.413Z,1.45
2022-09-12T13:38:03.255Z,0.90
2022-09-12T13:40:24.315Z,0.90
2022-09-12T13:42:41.539Z,0.80
2022-09-12T13:44:46.852Z,0.80
2022-09-12T13:46:50.854Z,1.20
2022-09-12T13:48:53.767Z,1.10
2022-09-12T13:51:00.002Z,1.02
2022-09-12T13:53:05.792Z,0.98
2022-09-12T13:55:16.390Z,1.80
2022-09-12T13:57:30.801Z,1.20
2022-09-12T13:59:39.543Z,1.00
2022-09-12T14:01:44.911Z,0.88
2022-09-12T14:04:09.175Z,1.02
2022-09-12T14:06:16.013Z,1.08
2022-09-12T14:08:19.369Z,0.88
2022-09-12T14:10:28.115Z,0.65
2022-09-12T14:12:35.182Z,0.88
2022-09-12T14:14:43.919Z,0.90
2022-09-12T14:16:47.130Z,0.95
2022-09-12T14:18:51.589Z,1.08
2022-09-12T14:20:57.105Z,0.90
2022-09-12T14:23:03.938Z,0.75
2022-09-12T14:25:10.813Z,0.80
2022-09-12T14:27:15.515Z,0.70
2022-09-12T14:29:18.888Z,0.70
2022-09-12T14:31:25.091Z,0.57
2022-09-12T14:33:27.692Z,0.90
2022-09-12T14:35:32.475Z,0.88
2022-09-12T14:37:35.473Z,0.90
2022-09-12T14:39:42.368Z,0.75
2022-09-12T14:41:46.192Z,0.50
2022-09-12T14:43:54.184Z,0.77
2022-09-12T14:46:00.328Z,0.80
2022-09-12T14:48:03.259Z,0.77
2022-09-12T14:50:16.705Z,1.70
2022-09-12T14:52:26.769Z,0.90
2022-09-12T14:54:42.738Z,0.90
2022-09-12T14:56:54.329Z,0.88
2022-09-12T14:59:30.204Z,0.90
2022-09-12T15:01:32.948Z,0.90
2022-09-12T15:03:36.998Z,0.82
2022-09-12T15:05:49.879Z,0.70
2022-09-12T15:07:55.872Z,0.90
2022-09-12T15:10:01.557Z,0.80
2022-09-12T15:12:04.147Z,0.80
2022-09-12T15:14:13.421Z,1.00
2022-09-12T15:16:16.140Z,0.70
2022-09-12T15:18:19.980Z,0.70
2022-09-12T15:20:23.331Z,0.77
2022-09-12T15:22:26.288Z,0.70
2022-09-12T15:24:28.917Z,0.70
2022-09-12T15:26:33.213Z,0.77
2022-09-12T15:28:35.752Z,0.80
2022-09-12T15:30:38.464Z,0.65
2022-09-12T15:32:43.094Z,0.70
2022-09-12T15:34:45.620Z,0.70
2022-09-12T15:36:48.153Z,0.80
2022-09-12T15:38:51.613Z,0.80
2022-09-12T15:40:54.587Z,0.80
2022-09-12T15:42:58.916Z,0.77
2022-09-12T15:45:02.725Z,0.77
2022-09-12T15:47:05.861Z,0.90
2022-09-12T15:49:08.576Z,0.70
2022-09-12T15:51:15.470Z,0.57
2022-09-12T15:53:18.743Z,0.70
2022-09-12T15:55:23.765Z,0.98
2022-09-12T15:57:26.354Z,1.02
2022-09-12T15:59:31.115Z,0.85
2022-09-12T16:01:33.730Z,1.00
2022-09-12T16:03:36.292Z,0.90
2022-09-12T16:05:38.941Z,0.98
2022-09-12T16:07:41.485Z,0.80
2022-09-12T16:09:44.034Z,0.75
2022-09-12T16:11:46.971Z,1.00
2022-09-12T16:13:49.637Z,1.05
2022-09-12T16:15:53.754Z,0.90
2022-09-12T16:17:56.343Z,1.13
2022-09-12T16:19:58.983Z,1.20
2022-09-12T16:22:01.559Z,1.23
2022-09-12T16:24:04.872Z,1.27
2022-09-12T16:26:08.037Z,1.30
2022-09-12T16:28:10.638Z,1.38
2022-09-12T16:30:14.429Z,1.10
2022-09-12T16:32:18.451Z,1.20
2022-09-12T16:34:20.994Z,0.93
2022-09-12T16:36:24.061Z,0.98
2022-09-12T16:38:26.566Z,1.10
2022-09-12T16:40:29.132Z,1.20
2022-09-12T16:42:32.069Z,0.93
2022-09-12T16:44:34.622Z,0.70
2022-09-12T16:46:37.213Z,1.00
2022-09-12T16:48:50.947Z,0.90
2022-09-12T16:50:57.834Z,1.02
2022-09-12T16:53:00.358Z,1.08
2022-09-12T16:55:02.921Z,1.30
2022-09-12T16:57:06.519Z,1.20
2022-09-12T16:59:12.056Z,0.80
2022-09-12T17:01:16.653Z,1.00
2022-09-12T17:03:19.185Z,1.08
2022-09-12T17:05:23.064Z,1.02
2022-09-12T17:07:25.679Z,1.17
2022-09-12T17:09:29.313Z,1.00
2022-09-12T17:11:33.698Z,1.13
2022-09-12T17:14:00.109Z,1.13
2022-09-12T17:15:59.427Z,1.13
2022-09-12T17:18:02.158Z,1.17
2022-09-12T17:20:05.203Z,1.02
2022-09-12T17:22:09.105Z,0.98
2022-09-12T17:24:11.871Z,1.10
2022-09-12T17:26:14.892Z,1.20
2022-09-12T17:28:17.540Z,1.02
2022-09-12T17:30:20.165Z,0.80
2022-09-12T17:32:22.741Z,0.95
2022-09-12T17:34:25.259Z,1.20
2022-09-12T17:36:29.475Z,1.00
2022-09-12T17:38:35.180Z,1.30
2022-09-12T17:40:58.642Z,1.15
2022-09-12T17:43:01.898Z,2.53
2022-09-12T17:45:05.065Z,2.60
2022-09-12T17:47:07.734Z,1.88
2022-09-12T17:49:13.778Z,1.38
2022-09-12T17:51:16.375Z,1.77
2022-09-12T17:53:18.915Z,1.70
2022-09-12T17:55:22.751Z,1.35
2022-09-12T17:57:25.766Z,1.63
2022-09-12T17:59:28.497Z,1.35
2022-09-12T18:01:49.686Z,1.50
2022-09-12T18:03:55.561Z,1.38
2022-09-12T18:05:58.189Z,1.40
2022-09-12T18:08:00.755Z,1.45
2022-09-12T18:10:03.324Z,1.63
2022-09-12T18:12:08.071Z,1.98
2022-09-12T18:14:14.021Z,1.65
2022-09-12T18:16:17.466Z,1.48
2022-09-12T18:18:20.030Z,1.40
2022-09-12T18:20:22.761Z,1.50
2022-09-12T18:22:25.316Z,1.35
2022-09-12T18:24:28.174Z,1.58
2022-09-12T18:26:31.931Z,1.80
2022-09-12T18:28:38.536Z,1.70
2022-09-12T18:30:42.387Z,1.90
2022-09-12T18:32:44.904Z,1.67
2022-09-12T18:34:47.434Z,1.50
2022-09-12T18:36:54.219Z,1.60
2022-09-12T18:38:59.154Z,1.50
2022-09-12T18:41:05.837Z,1.55
2022-09-12T18:43:08.365Z,1.88
2022-09-12T18:45:12.719Z,1.60
2022-09-12T18:47:15.711Z,1.85
2022-09-12T18:49:18.429Z,2.80
2022-09-12T18:51:23.430Z,3.35
2022-09-12T18:53:26.103Z,2.30
2022-09-12T18:55:28.665Z,2.30
2022-09-12T18:57:34.891Z,2.30
2022-09-12T18:59:40.051Z,2.20
2022-09-12T19:01:44.351Z,2.35
2022-09-12T19:03:47.584Z,2.17
2022-09-12T19:05:50.204Z,2.20
2022-09-12T19:07:52.832Z,2.15
2022-09-12T19:09:55.743Z,2.35
2022-09-12T19:11:58.292Z,1.95
2022-09-12T19:14:00.990Z,1.90
2022-09-12T19:16:05.633Z,2.05
2022-09-12T19:18:09.742Z,2.10
2022-09-12T19:20:12.313Z,1.95
2022-09-12T19:22:14.845Z,1.75
2022-09-12T19:24:17.732Z,1.90
2022-09-12T19:26:22.146Z,1.80
2022-09-12T19:28:24.765Z,2.42
2022-09-12T19:30:28.699Z,1.90
2022-09-12T19:32:34.149Z,1.83
2022-09-12T19:34:38.701Z,2.03
2022-09-12T19:36:45.268Z,1.90
2022-09-12T19:38:48.291Z,2.30
2022-09-12T19:40:58.023Z,2.10
2022-09-12T19:43:00.615Z,1.90
2022-09-12T19:45:03.144Z,2.13
2022-09-12T19:47:06.812Z,3.47
2022-09-12T19:49:11.166Z,3.25
2022-09-12T19:51:16.006Z,3.92
2022-09-12T19:53:19.175Z,2.50
2022-09-12T19:55:22.286Z,2.35
2022-09-12T19:57:25.593Z,2.45
2022-09-12T19:59:28.120Z,2.15
2022-09-12T20:01:30.806Z,2.38
2022-09-12T20:03:33.769Z,2.70
2022-09-12T20:05:40.735Z,2.47
2022-09-12T20:07:46.713Z,3.47
2022-09-12T20:09:49.325Z,35.40
2022-09-12T20:11:51.980Z,3.83
2022-09-12T20:13:54.723Z,1.73
2022-09-12T20:15:58.963Z,1.95
2022-09-12T20:18:01.635Z,1.70
2022-09-12T20:20:05.367Z,1.67
2022-09-12T20:22:08.038Z,1.55
2022-09-12T20:24:15.712Z,1.58
2022-09-12T20:26:20.074Z,1.60
2022-09-12T20:28:22.890Z,1.50
2022-09-12T20:30:25.781Z,1.52
2022-09-12T20:32:28.910Z,1.80
2022-09-12T20:34:31.439Z,1.70
2022-09-12T20:36:34.335Z,1.95
2022-09-12T20:38:37.441Z,1.48
2022-09-12T20:40:48.914Z,1.42
2022-09-12T20:42:51.449Z,1.52
2022-09-12T20:44:53.974Z,1.80
2022-09-12T20:46:56.631Z,1.80
2022-09-12T20:48:59.426Z,1.75
2022-09-12T20:51:02.189Z,1.73
2022-09-12T20:53:05.248Z,1.70
2022-09-12T20:55:08.798Z,1.50
2022-09-12T20:57:12.683Z,1.80
2022-09-12T20:59:17.791Z,1.88
2022-09-12T21:01:21.203Z,1.70
2022-09-12T21:03:25.342Z,1.80
2022-09-12T21:05:27.980Z,1.83
2022-09-12T21:07:31.581Z,2.05
2022-09-12T21:09:34.166Z,1.70
2022-09-12T21:11:36.711Z,1.90
2022-09-12T21:13:40.888Z,1.88
2022-09-12T21:15:43.563Z,1.77
2022-09-12T21:17:46.119Z,1.63
2022-09-12T21:19:48.653Z,1.95
2022-09-12T21:21:51.250Z,1.77
2022-09-12T21:23:55.426Z,1.65
2022-09-12T21:25:59.997Z,1.55
2022-09-12T21:28:03.248Z,1.67
2022-09-12T21:30:11.503Z,1.70
2022-09-12T21:32:14.433Z,2.25
2022-09-12T21:34:17.021Z,1.60
2022-09-12T21:36:19.683Z,1.50
2022-09-12T21:38:22.317Z,2.03
2022-09-12T21:40:24.883Z,1.63
2022-09-12T21:42:28.205Z,1.77
2022-09-12T21:44:30.968Z,1.63
2022-09-12T21:46:34.852Z,1.52
2022-09-12T21:48:38.198Z,1.73
2022-09-12T21:50:40.738Z,1.77
2022-09-12T21:52:43.607Z,1.42
2022-09-12T21:54:46.146Z,2.08
2022-09-12T21:56:48.669Z,1.70
2022-09-12T21:58:51.225Z,1.75
2022-09-12T22:00:53.927Z,1.65
2022-09-12T22:02:57.959Z,1.67
2022-09-12T22:05:00.482Z,2.10
2022-09-12T22:07:03.127Z,1.83
2022-09-12T22:09:07.244Z,1.83
2022-09-12T22:11:10.701Z,1.98
2022-09-12T22:13:13.241Z,1.85
2022-09-12T22:15:39.580Z,1.90
2022-09-12T22:17:38.767Z,1.88
2022-09-12T22:19:42.621Z,2.25
2022-09-12T22:22:05.952Z,1.90
2022-09-12T22:24:27.799Z,2.22
2022-09-12T22:26:34.368Z,2.42
2022-09-12T22:28:36.874Z,1.75
2022-09-12T22:30:39.626Z,1.98
2022-09-12T22:32:42.183Z,2.30
2022-09-12T22:34:46.150Z,2.05
2022-09-12T22:36:49.488Z,1.90
2022-09-12T22:38:52.055Z,1.88
2022-09-12T22:40:54.607Z,2.00
2022-09-12T22:42:57.299Z,2.35
2022-09-12T22:44:59.840Z,2.00
2022-09-12T22:47:02.426Z,2.22
2022-09-12T22:49:05.620Z,2.25
2022-09-12T22:51:10.085Z,1.90
2022-09-12T22:53:12.705Z,1.98
2022-09-12T22:55:15.321Z,1.90
2022-09-12T22:57:18.028Z,2.00
2022-09-12T22:59:20.608Z,1.90
2022-09-12T23:01:23.928Z,2.40
2022-09-12T23:03:26.509Z,2.80
2022-09-12T23:05:29.166Z,2.60
2022-09-12T23:07:33.465Z,2.88
2022-09-12T23:09:35.992Z,2.67
2022-09-12T23:11:38.568Z,2.60
2022-09-12T23:13:43.659Z,2.63
2022-09-12T23:15:46.325Z,2.30
2022-09-12T23:17:49.063Z,2.25
2022-09-12T23:19:51.664Z,2.60
2022-09-12T23:21:54.180Z,2.50
2022-09-12T23:23:58.398Z,2.80
2022-09-12T23:26:05.993Z,2.20
2022-09-12T23:28:08.512Z,2.30
2022-09-12T23:30:12.118Z,2.40
2022-09-12T23:32:14.655Z,2.10
2022-09-12T23:34:17.287Z,2.00
2022-09-12T23:36:19.854Z,2.40
2022-09-12T23:38:22.544Z,1.67
2022-09-12T23:40:26.403Z,2.17
2022-09-12T23:42:28.905Z,2.00
2022-09-12T23:44:31.501Z,1.70
2022-09-12T23:46:34.188Z,2.00
2022-09-12T23:48:36.832Z,1.95
2022-09-12T23:50:39.418Z,1.60
2022-09-12T23:52:41.953Z,1.80
2022-09-12T23:54:44.533Z,1.63
2022-09-12T23:56:48.667Z,2.00
2022-09-12T23:58:51.304Z,1.63
